createdAt,value
2024-02-28T00:01:13.924Z,5.10
2024-02-28T00:03:40.952Z,5.00
2024-02-28T00:06:07.723Z,5.00
2024-02-28T00:08:34.135Z,4.60
2024-02-28T00:11:00.611Z,4.90
2024-02-28T00:13:27.090Z,4.80
2024-02-28T00:15:53.661Z,4.50
2024-02-28T00:18:20.631Z,4.30
2024-02-28T00:20:47.267Z,4.30
2024-02-28T00:23:13.776Z,4.70
2024-02-28T00:25:40.220Z,4.70
2024-02-28T00:28:06.893Z,5.50
2024-02-28T00:30:34.195Z,4.60
2024-02-28T00:35:27.649Z,5.10
2024-02-28T00:37:54.052Z,4.90
2024-02-28T00:40:20.469Z,4.90
2024-02-28T00:42:46.974Z,4.00
2024-02-28T00:45:13.633Z,5.00
2024-02-28T00:47:41.547Z,4.40
2024-02-28T00:50:09.077Z,4.40
2024-02-28T00:52:35.525Z,4.80
2024-02-28T00:55:02.108Z,4.30
2024-02-28T00:57:28.833Z,4.40
2024-02-28T00:59:55.870Z,4.10
2024-02-28T01:02:23.037Z,3.50
2024-02-28T01:04:49.647Z,4.20
2024-02-28T01:07:16.734Z,3.60
2024-02-28T01:09:43.201Z,4.60
2024-02-28T01:12:09.722Z,4.70
2024-02-28T01:14:36.128Z,4.90
2024-02-28T01:17:02.585Z,5.30
2024-02-28T01:19:29.042Z,4.50
2024-02-28T01:21:55.503Z,4.70
2024-02-28T01:24:21.976Z,4.60
2024-02-28T01:26:48.421Z,5.00
2024-02-28T01:29:14.932Z,4.80
2024-02-28T01:31:41.368Z,5.10
2024-02-28T01:34:07.968Z,4.20
2024-02-28T01:36:34.455Z,5.10
2024-02-28T01:39:00.866Z,5.00
2024-02-28T01:41:27.268Z,4.90
2024-02-28T01:43:54.919Z,4.70
2024-02-28T01:46:24.971Z,5.00
2024-02-28T01:48:51.763Z,5.00
2024-02-28T01:51:18.881Z,4.60
2024-02-28T01:53:46.722Z,3.80
2024-02-28T01:56:16.030Z,4.10
2024-02-28T01:58:46.304Z,4.10
2024-02-28T02:01:15.028Z,4.30
2024-02-28T02:03:41.731Z,4.50
2024-02-28T02:06:08.229Z,4.60
2024-02-28T02:08:35.421Z,4.30
2024-02-28T02:11:01.940Z,4.20
2024-02-28T02:13:28.525Z,4.80
2024-02-28T02:15:55.027Z,4.20
2024-02-28T02:18:21.657Z,4.00
2024-02-28T02:20:51.805Z,4.00
2024-02-28T02:23:18.288Z,4.40
2024-02-28T02:25:49.349Z,4.00
2024-02-28T02:28:16.732Z,3.50
2024-02-28T02:30:43.846Z,4.50
2024-02-28T02:33:10.445Z,4.00
2024-02-28T02:35:37.147Z,4.30
2024-02-28T02:38:03.769Z,4.30
2024-02-28T02:40:30.306Z,3.40
2024-02-28T02:42:56.998Z,4.50
2024-02-28T02:45:23.649Z,4.00
2024-02-28T02:47:50.471Z,4.20
2024-02-28T02:50:17.335Z,4.20
2024-02-28T02:52:44.060Z,4.30
2024-02-28T02:55:10.680Z,4.90
2024-02-28T02:57:37.252Z,4.90
2024-02-28T03:00:04.822Z,4.80
2024-02-28T03:04:58.505Z,4.10
2024-02-28T03:07:24.921Z,4.20
2024-02-28T03:09:51.382Z,3.70
2024-02-28T03:12:17.913Z,4.40
2024-02-28T03:14:44.333Z,4.20
2024-02-28T03:17:10.721Z,4.50
2024-02-28T03:19:37.461Z,4.20
2024-02-28T03:22:04.457Z,3.60
2024-02-28T03:24:31.044Z,3.90
2024-02-28T03:26:57.500Z,4.50
2024-02-28T03:29:24.183Z,3.10
2024-02-28T03:31:50.992Z,3.60
2024-02-28T03:34:17.408Z,4.40
2024-02-28T03:36:44.191Z,4.00
2024-02-28T03:39:11.074Z,4.30
2024-02-28T03:41:37.472Z,4.80
2024-02-28T03:44:03.970Z,4.10
2024-02-28T03:46:30.986Z,3.50
2024-02-28T03:48:57.699Z,3.50
2024-02-28T03:51:24.503Z,3.80
2024-02-28T03:53:51.139Z,4.20
2024-02-28T03:56:27.220Z,4.30
2024-02-28T03:58:54.481Z,3.80
2024-02-28T04:01:21.016Z,4.10
2024-02-28T04:03:47.658Z,4.50
2024-02-28T04:06:14.534Z,4.00
2024-02-28T04:08:43.841Z,4.10
2024-02-28T04:11:11.230Z,3.90
2024-02-28T04:16:04.737Z,3.80
2024-02-28T04:18:31.554Z,4.50
2024-02-28T04:20:58.141Z,4.20
2024-02-28T04:23:24.625Z,4.50
2024-02-28T04:25:51.131Z,3.50
2024-02-28T04:28:17.577Z,4.80
2024-02-28T04:30:44.951Z,4.00
2024-02-28T04:35:37.880Z,4.60
2024-02-28T04:38:04.507Z,4.20
2024-02-28T04:40:30.929Z,3.20
2024-02-28T04:42:57.421Z,4.80
2024-02-28T04:45:23.886Z,4.10
2024-02-28T04:47:53.010Z,4.50
2024-02-28T04:50:19.653Z,4.50
2024-02-28T04:52:46.056Z,4.50
2024-02-28T04:55:13.500Z,3.80
2024-02-28T04:57:40.051Z,4.30
2024-02-28T05:00:09.046Z,4.00
2024-02-28T05:02:35.472Z,4.80
2024-02-28T05:05:01.981Z,4.20
2024-02-28T05:07:28.413Z,2.80
2024-02-28T05:09:54.911Z,5.10
2024-02-28T05:12:21.480Z,4.60
2024-02-28T05:14:47.902Z,5.70
2024-02-28T05:17:14.343Z,4.60
2024-02-28T05:19:40.922Z,4.40
2024-02-28T05:22:07.780Z,5.60
2024-02-28T05:24:34.393Z,4.40
2024-02-28T05:27:00.872Z,4.60
2024-02-28T05:29:27.439Z,4.30
2024-02-28T05:31:54.133Z,4.10
2024-02-28T05:34:21.120Z,4.40
2024-02-28T05:36:47.764Z,4.90
2024-02-28T05:39:14.371Z,5.30
2024-02-28T05:41:40.993Z,5.20
2024-02-28T05:44:07.582Z,5.20
2024-02-28T05:46:34.313Z,5.70
2024-02-28T05:49:00.813Z,6.20
2024-02-28T05:51:27.402Z,6.30
2024-02-28T05:53:53.886Z,6.50
2024-02-28T05:56:21.134Z,5.50
2024-02-28T06:01:19.899Z,5.70
2024-02-28T06:03:48.495Z,5.00
2024-02-28T06:06:15.255Z,5.00
2024-02-28T06:08:42.457Z,5.10
2024-02-28T06:11:09.542Z,4.60
2024-02-28T06:13:36.906Z,5.70
2024-02-28T06:16:04.546Z,5.90
2024-02-28T06:18:34.396Z,4.80
2024-02-28T06:21:02.072Z,4.60
2024-02-28T06:23:30.009Z,5.50
2024-02-28T06:25:58.073Z,5.40
2024-02-28T06:28:25.524Z,5.10
2024-02-28T06:30:52.125Z,5.50
2024-02-28T06:33:19.950Z,6.80
2024-02-28T06:35:46.718Z,5.70
2024-02-28T06:38:13.210Z,6.20
2024-02-28T06:40:40.095Z,5.50
2024-02-28T06:43:06.785Z,5.30
2024-02-28T06:45:33.430Z,5.80
2024-02-28T06:48:00.424Z,5.30
2024-02-28T06:50:26.891Z,5.90
2024-02-28T06:52:54.840Z,5.50
2024-02-28T06:55:22.219Z,5.50
2024-02-28T07:00:17.108Z,5.70
2024-02-28T07:02:43.857Z,5.50
2024-02-28T07:05:10.327Z,6.00
2024-02-28T07:07:36.831Z,6.20
2024-02-28T07:10:05.668Z,6.50
2024-02-28T07:12:32.701Z,5.90
2024-02-28T07:14:59.415Z,5.80
2024-02-28T07:17:25.845Z,5.50
2024-02-28T07:19:52.245Z,6.70
2024-02-28T07:22:18.933Z,6.20
2024-02-28T07:24:45.466Z,5.50
2024-02-28T07:27:12.021Z,5.20
2024-02-28T07:29:38.860Z,6.00
2024-02-28T07:32:06.290Z,5.30
2024-02-28T07:36:59.246Z,6.60
2024-02-28T07:39:26.045Z,5.90
2024-02-28T07:41:55.875Z,6.20
2024-02-28T07:44:23.105Z,7.10
2024-02-28T07:46:51.692Z,6.40
2024-02-28T07:49:18.489Z,5.80
2024-02-28T07:51:45.052Z,6.30
2024-02-28T07:54:11.620Z,4.20
2024-02-28T07:56:38.027Z,6.80
2024-02-28T07:59:04.588Z,5.70
2024-02-28T08:01:32.056Z,6.50
2024-02-28T08:03:58.857Z,6.30
2024-02-28T08:06:25.676Z,5.80
2024-02-28T08:08:52.296Z,5.60
2024-02-28T08:11:20.283Z,5.60
2024-02-28T08:13:47.036Z,6.10
2024-02-28T08:16:13.773Z,6.30
2024-02-28T08:18:40.724Z,5.70
2024-02-28T08:21:07.200Z,6.10
2024-02-28T08:23:33.635Z,5.80
2024-02-28T08:26:00.112Z,6.00
2024-02-28T08:28:26.601Z,5.90
2024-02-28T08:30:53.336Z,6.40
2024-02-28T08:33:21.840Z,5.80
2024-02-28T08:35:51.347Z,6.50
2024-02-28T08:38:18.116Z,5.00
2024-02-28T08:40:44.545Z,5.20
2024-02-28T08:43:10.975Z,5.60
2024-02-28T08:45:38.860Z,6.30
2024-02-28T08:48:06.961Z,6.10
2024-02-28T08:50:33.398Z,5.90
2024-02-28T08:52:59.820Z,5.80
2024-02-28T08:55:26.286Z,6.20
2024-02-28T08:57:52.818Z,5.10
2024-02-28T09:00:19.546Z,5.70
2024-02-28T09:02:46.031Z,5.60
2024-02-28T09:05:12.567Z,5.90
2024-02-28T09:07:39.069Z,6.40
2024-02-28T09:10:09.157Z,6.10
2024-02-28T09:12:35.662Z,6.00
2024-02-28T09:15:02.186Z,5.60
2024-02-28T09:17:28.689Z,4.50
2024-02-28T09:19:55.770Z,5.90
2024-02-28T09:22:22.873Z,5.60
2024-02-28T09:24:50.129Z,6.20
2024-02-28T09:29:43.338Z,8.70
2024-02-28T09:32:10.298Z,5.90
2024-02-28T09:34:38.366Z,20.40
2024-02-28T09:37:05.440Z,7.80
2024-02-28T09:39:32.041Z,5.90
2024-02-28T09:41:59.226Z,5.00
2024-02-28T09:44:26.861Z,4.70
2024-02-28T09:46:54.069Z,5.00
2024-02-28T09:49:21.189Z,4.90
2024-02-28T09:51:53.782Z,4.50
2024-02-28T09:54:20.533Z,4.60
2024-02-28T09:56:49.520Z,4.70
2024-02-28T09:59:18.363Z,4.10
2024-02-28T10:01:51.505Z,4.90
2024-02-28T10:04:18.386Z,4.20
2024-02-28T10:06:44.989Z,5.60
2024-02-28T10:09:12.064Z,4.20
2024-02-28T10:11:39.086Z,5.10
2024-02-28T10:14:05.572Z,5.50
2024-02-28T10:16:32.032Z,5.70
2024-02-28T10:18:58.666Z,5.60
2024-02-28T10:21:27.358Z,4.90
2024-02-28T10:23:54.029Z,5.90
2024-02-28T10:26:20.433Z,5.70
2024-02-28T10:28:46.930Z,5.80
2024-02-28T10:31:13.665Z,5.50
2024-02-28T10:33:43.185Z,5.50
2024-02-28T10:36:10.460Z,5.60
2024-02-28T10:38:39.996Z,5.40
2024-02-28T10:41:09.856Z,6.00
2024-02-28T10:43:40.862Z,5.80
2024-02-28T10:46:26.170Z,4.60
2024-02-28T10:48:57.085Z,5.90
2024-02-28T10:51:27.375Z,5.20
2024-02-28T10:54:07.736Z,5.80
2024-02-28T10:56:34.208Z,5.00
2024-02-28T10:59:01.634Z,5.30
2024-02-28T11:01:29.025Z,5.80
2024-02-28T11:03:56.469Z,5.60
2024-02-28T11:06:24.055Z,5.40
2024-02-28T11:08:55.816Z,6.30
2024-02-28T11:11:22.561Z,5.70
2024-02-28T11:14:01.271Z,5.50
2024-02-28T11:16:33.133Z,5.40
2024-02-28T11:19:01.276Z,5.60
2024-02-28T11:21:28.851Z,6.10
2024-02-28T11:24:00.694Z,6.30
2024-02-28T11:26:29.019Z,6.80
2024-02-28T11:28:56.359Z,6.10
2024-02-28T11:31:23.187Z,7.20
2024-02-28T11:36:16.359Z,7.30
2024-02-28T11:38:43.018Z,6.90
2024-02-28T11:41:09.488Z,7.30
2024-02-28T11:43:46.997Z,6.90
2024-02-28T11:46:19.477Z,6.60
2024-02-28T11:48:46.753Z,6.40
2024-02-28T11:51:13.307Z,6.70
2024-02-28T11:53:39.911Z,6.70
2024-02-28T11:56:06.934Z,5.70
2024-02-28T12:01:00.151Z,5.00
2024-02-28T12:03:28.464Z,5.30
2024-02-28T12:05:56.791Z,5.30
2024-02-28T12:08:24.968Z,5.10
2024-02-28T12:10:52.991Z,5.20
2024-02-28T12:13:20.111Z,5.10
2024-02-28T12:15:48.447Z,4.60
2024-02-28T12:18:18.140Z,5.20
2024-02-28T12:20:46.531Z,4.60
2024-02-28T12:23:13.481Z,4.80
2024-02-28T12:25:40.766Z,4.40
2024-02-28T12:28:08.164Z,5.30
2024-02-28T12:30:44.942Z,5.20
2024-02-28T12:33:15.178Z,4.90
2024-02-28T12:35:43.406Z,5.10
2024-02-28T12:38:10.737Z,4.90
2024-02-28T12:43:04.433Z,5.10
2024-02-28T12:45:31.808Z,5.00
2024-02-28T12:47:58.573Z,6.90
2024-02-28T12:52:54.859Z,6.00
2024-02-28T12:55:24.252Z,6.50
2024-02-28T12:57:51.692Z,5.20
2024-02-28T13:00:18.973Z,5.70
2024-02-28T13:02:46.117Z,5.60
2024-02-28T13:05:14.332Z,6.20
2024-02-28T13:07:41.152Z,7.20
2024-02-28T13:12:35.290Z,6.60
2024-02-28T13:15:01.955Z,7.70
2024-02-28T13:17:28.457Z,7.00
2024-02-28T13:22:21.378Z,7.90
2024-02-28T13:24:47.883Z,6.40
2024-02-28T13:27:14.691Z,6.70
2024-02-28T13:29:41.154Z,7.30
2024-02-28T13:32:08.523Z,6.60
2024-02-28T13:34:34.956Z,6.50
2024-02-28T13:37:01.436Z,7.80
2024-02-28T13:41:55.072Z,6.70
2024-02-28T13:44:21.577Z,6.60
2024-02-28T13:46:49.061Z,6.80
2024-02-28T13:49:17.513Z,7.10
2024-02-28T13:51:44.244Z,4.90
2024-02-28T13:56:37.185Z,7.10
2024-02-28T13:59:03.628Z,6.40
2024-02-28T14:01:30.438Z,6.30
2024-02-28T14:03:57.457Z,6.30
2024-02-28T14:06:24.067Z,6.50
2024-02-28T14:08:52.750Z,6.00
2024-02-28T14:11:19.764Z,6.70
2024-02-28T14:13:46.548Z,6.00
2024-02-28T14:16:13.690Z,5.80
2024-02-28T14:18:40.287Z,6.10
2024-02-28T14:21:08.306Z,5.20
2024-02-28T14:23:35.182Z,5.60
2024-02-28T14:26:01.603Z,5.20
2024-02-28T14:28:28.181Z,4.90
2024-02-28T14:30:55.046Z,4.50
2024-02-28T14:33:22.638Z,3.70
2024-02-28T14:35:49.322Z,4.10
2024-02-28T14:38:16.495Z,5.30
2024-02-28T14:43:10.153Z,4.00
2024-02-28T14:45:39.916Z,5.70
2024-02-28T14:48:08.565Z,4.00
2024-02-28T14:50:35.281Z,6.10
2024-02-28T14:53:02.014Z,4.10
2024-02-28T14:55:28.420Z,4.50
2024-02-28T14:57:54.898Z,4.50
2024-02-28T15:00:22.057Z,4.40
2024-02-28T15:05:15.785Z,4.80
2024-02-28T15:10:09.792Z,2.90
2024-02-28T15:15:05.691Z,5.10
2024-02-28T15:17:33.007Z,5.50
2024-02-28T15:20:00.821Z,4.00
2024-02-28T15:22:27.320Z,5.10
2024-02-28T15:24:53.876Z,4.40
2024-02-28T15:27:20.435Z,2.90
2024-02-28T15:29:46.915Z,3.20
2024-02-28T15:32:13.572Z,4.20
2024-02-28T15:34:40.508Z,2.50
2024-02-28T15:37:07.532Z,3.60
2024-02-28T15:39:34.170Z,4.40
2024-02-28T15:42:03.615Z,3.00
2024-02-28T15:44:30.044Z,4.10
2024-02-28T15:46:58.182Z,3.80
2024-02-28T15:49:33.089Z,3.40
2024-02-28T15:52:08.766Z,4.70
2024-02-28T15:54:38.329Z,4.50
2024-02-28T15:57:05.081Z,4.20
2024-02-28T15:59:31.781Z,4.10
2024-02-28T16:02:01.527Z,4.40
2024-02-28T16:04:28.010Z,3.90
2024-02-28T16:06:54.452Z,3.70
2024-02-28T16:09:20.893Z,3.20
2024-02-28T16:11:47.468Z,5.30
2024-02-28T16:14:14.796Z,4.60
2024-02-28T16:16:41.470Z,4.60
2024-02-28T16:19:15.540Z,4.30
2024-02-28T16:21:51.100Z,4.30
2024-02-28T16:24:17.813Z,4.10
2024-02-28T16:26:44.656Z,3.80
2024-02-28T16:29:11.151Z,3.80
2024-02-28T16:31:37.623Z,5.10
2024-02-28T16:34:04.199Z,6.00
2024-02-28T16:36:31.596Z,2.30
2024-02-28T16:41:24.875Z,3.90
2024-02-28T16:43:52.003Z,4.60
2024-02-28T16:46:20.954Z,2.30
2024-02-28T16:48:47.675Z,4.90
2024-02-28T16:51:14.224Z,3.90
2024-02-28T16:53:40.707Z,4.10
2024-02-28T16:56:07.182Z,3.50
2024-02-28T16:58:36.254Z,3.80
2024-02-28T17:01:03.316Z,3.70
2024-02-28T17:03:30.011Z,4.00
2024-02-28T17:05:56.482Z,3.90
2024-02-28T17:08:22.911Z,4.20
2024-02-28T17:10:49.573Z,4.40
2024-02-28T17:13:16.011Z,2.80
2024-02-28T17:15:43.362Z,3.00
2024-02-28T17:18:10.169Z,5.10
2024-02-28T17:20:36.665Z,5.00
2024-02-28T17:23:03.998Z,4.30
2024-02-28T17:25:30.427Z,3.80
2024-02-28T17:27:57.051Z,2.60
2024-02-28T17:30:23.584Z,3.70
2024-02-28T17:32:51.307Z,4.10
2024-02-28T17:35:19.399Z,4.50
2024-02-28T17:37:46.127Z,4.50
2024-02-28T17:40:16.732Z,3.30
2024-02-28T17:42:43.345Z,4.60
2024-02-28T17:45:10.454Z,4.00
2024-02-28T17:47:39.028Z,2.90
2024-02-28T17:50:07.613Z,3.30
2024-02-28T17:52:37.672Z,3.70
2024-02-28T17:55:07.678Z,5.30
2024-02-28T17:57:36.506Z,4.00
2024-02-28T18:00:07.921Z,5.80
2024-02-28T18:02:34.698Z,5.20
2024-02-28T18:05:01.164Z,5.00
2024-02-28T18:07:27.676Z,3.90
2024-02-28T18:09:54.156Z,5.60
2024-02-28T18:12:20.573Z,5.50
2024-02-28T18:14:47.010Z,5.60
2024-02-28T18:17:14.239Z,5.00
2024-02-28T18:19:40.781Z,3.70
2024-02-28T18:22:10.055Z,5.30
2024-02-28T18:24:39.908Z,4.40
2024-02-28T18:27:10.111Z,6.30
2024-02-28T18:29:37.175Z,6.80
2024-02-28T18:32:04.503Z,3.60
2024-02-28T18:34:31.225Z,3.80
2024-02-28T18:36:58.108Z,7.10
2024-02-28T18:39:25.829Z,3.60
2024-02-28T18:41:53.886Z,6.80
2024-02-28T18:44:20.731Z,6.20
2024-02-28T18:46:47.301Z,6.80
2024-02-28T18:49:13.840Z,6.10
2024-02-28T18:51:41.442Z,5.50
2024-02-28T18:54:08.194Z,5.80
2024-02-28T18:56:35.020Z,4.40
2024-02-28T18:59:01.827Z,4.50
2024-02-28T19:01:28.464Z,6.10
2024-02-28T19:03:56.935Z,3.70
2024-02-28T19:06:25.631Z,8.30
2024-02-28T19:08:56.768Z,7.40
2024-02-28T19:11:23.701Z,7.80
2024-02-28T19:13:51.536Z,7.10
2024-02-28T19:16:19.616Z,4.70
2024-02-28T19:18:46.240Z,4.80
2024-02-28T19:21:12.912Z,6.70
2024-02-28T19:23:41.782Z,4.70
2024-02-28T19:26:08.580Z,5.70
2024-02-28T19:28:35.119Z,4.00
2024-02-28T19:31:02.860Z,4.30
2024-02-28T19:33:29.519Z,5.80
2024-02-28T19:35:56.058Z,6.30
2024-02-28T19:38:22.848Z,6.90
2024-02-28T19:40:49.295Z,3.80
2024-02-28T19:43:15.981Z,6.00
2024-02-28T19:45:42.711Z,6.20
2024-02-28T19:48:09.487Z,6.40
2024-02-28T19:50:36.285Z,7.40
2024-02-28T19:53:04.170Z,5.80
2024-02-28T19:55:30.725Z,7.80
2024-02-28T19:57:57.315Z,8.60
2024-02-28T20:00:23.847Z,8.20
2024-02-28T20:02:50.559Z,8.50
2024-02-28T20:05:19.480Z,6.90
2024-02-28T20:07:47.869Z,9.50
2024-02-28T20:10:16.285Z,11.60
2024-02-28T20:12:43.037Z,11.10
2024-02-28T20:15:09.907Z,12.00
2024-02-28T20:17:36.466Z,11.70
2024-02-28T20:20:04.492Z,11.60
2024-02-28T20:22:30.987Z,10.10
2024-02-28T20:24:57.417Z,9.20
2024-02-28T20:27:23.942Z,9.20
2024-02-28T20:29:50.459Z,9.40
2024-02-28T20:32:16.886Z,9.80
2024-02-28T20:34:43.385Z,9.50
2024-02-28T20:37:09.902Z,7.70
2024-02-28T20:39:36.574Z,7.80
2024-02-28T20:42:05.835Z,7.70
2024-02-28T20:44:32.386Z,7.50
2024-02-28T20:46:58.948Z,7.60
2024-02-28T20:49:25.592Z,7.20
2024-02-28T20:51:52.108Z,9.10
2024-02-28T20:54:18.732Z,9.10
2024-02-28T20:56:45.216Z,7.30
2024-02-28T20:59:11.717Z,8.50
2024-02-28T21:01:38.631Z,7.70
2024-02-28T21:04:06.874Z,6.30
2024-02-28T21:06:33.863Z,9.00
2024-02-28T21:09:01.473Z,7.90
2024-02-28T21:13:56.493Z,8.20
2024-02-28T21:16:23.835Z,8.60
2024-02-28T21:18:55.464Z,7.80
2024-02-28T21:21:24.378Z,7.90
2024-02-28T21:23:50.874Z,7.50
2024-02-28T21:26:17.433Z,6.10
2024-02-28T21:28:44.068Z,8.00
2024-02-28T21:31:12.524Z,7.80
2024-02-28T21:33:39.381Z,7.10
2024-02-28T21:36:06.346Z,9.30
2024-02-28T21:38:32.812Z,9.50
2024-02-28T21:40:59.294Z,8.50
2024-02-28T21:43:25.727Z,6.70
2024-02-28T21:45:52.294Z,5.50
2024-02-28T21:48:19.057Z,7.30
2024-02-28T21:50:45.708Z,8.40
2024-02-28T21:53:12.334Z,8.40
2024-02-28T21:55:39.381Z,9.00
2024-02-28T21:58:05.997Z,8.40
2024-02-28T22:00:32.763Z,7.50
2024-02-28T22:02:59.323Z,8.30
2024-02-28T22:05:25.845Z,6.60
2024-02-28T22:07:52.605Z,6.30
2024-02-28T22:10:19.149Z,6.20
2024-02-28T22:12:45.831Z,7.20
2024-02-28T22:15:12.511Z,8.30
2024-02-28T22:17:39.149Z,9.50
2024-02-28T22:20:07.106Z,7.60
2024-02-28T22:22:33.926Z,8.50
2024-02-28T22:25:00.458Z,6.10
2024-02-28T22:27:27.359Z,8.40
2024-02-28T22:29:55.277Z,7.30
2024-02-28T22:32:22.743Z,5.30
2024-02-28T22:34:49.185Z,7.60
2024-02-28T22:37:15.815Z,8.00
2024-02-28T22:39:42.481Z,7.80
2024-02-28T22:42:08.948Z,5.20
2024-02-28T22:44:35.426Z,5.90
2024-02-28T22:47:01.930Z,6.00
2024-02-28T22:49:29.248Z,6.20
2024-02-28T22:51:55.757Z,7.00
2024-02-28T22:54:24.321Z,8.80
2024-02-28T22:56:51.028Z,7.50
2024-02-28T22:59:18.455Z,6.70
2024-02-28T23:04:12.696Z,5.80
2024-02-28T23:06:40.739Z,6.40
2024-02-28T23:09:07.679Z,7.50
2024-02-28T23:11:34.761Z,6.40
2024-02-28T23:14:02.174Z,5.60
2024-02-28T23:16:29.937Z,6.60
2024-02-28T23:18:57.017Z,6.90
2024-02-28T23:21:23.960Z,6.90
2024-02-28T23:23:50.524Z,9.00
2024-02-28T23:26:17.024Z,5.90
2024-02-28T23:28:44.138Z,7.20
2024-02-28T23:31:10.742Z,7.60
2024-02-28T23:33:37.564Z,5.30
2024-02-28T23:36:04.876Z,5.80
2024-02-28T23:38:31.455Z,5.50
2024-02-28T23:40:57.994Z,7.50
2024-02-28T23:43:25.061Z,8.50
2024-02-28T23:45:51.516Z,7.00
2024-02-28T23:48:17.969Z,7.70
2024-02-28T23:50:53.757Z,7.50
2024-02-28T23:53:20.811Z,6.90
2024-02-28T23:55:47.381Z,7.80
2024-02-28T23:58:14.350Z,5.40
